createdAt,value
2023-02-24T00:01:38.090Z,7.90
2023-02-24T00:04:08.598Z,7.80
2023-02-24T00:06:37.804Z,7.70
2023-02-24T00:09:08.456Z,7.70
2023-02-24T00:11:39.104Z,7.70
2023-02-24T00:14:08.084Z,7.60
2023-02-24T00:16:37.644Z,7.50
2023-02-24T00:19:07.660Z,7.30
2023-02-24T00:21:36.194Z,7.30
2023-02-24T00:24:04.694Z,7.30
2023-02-24T00:26:33.091Z,8.20
2023-02-24T00:29:04.920Z,7.50
2023-02-24T00:31:34.110Z,7.60
2023-02-24T00:34:02.902Z,7.60
2023-02-24T00:36:34.004Z,7.70
2023-02-24T00:39:03.551Z,7.70
2023-02-24T00:41:32.479Z,7.80
2023-02-24T00:44:06.437Z,7.70
2023-02-24T00:46:36.838Z,7.70
2023-02-24T00:49:06.472Z,7.70
2023-02-24T00:51:36.252Z,7.70
2023-02-24T00:54:04.655Z,7.70
2023-02-24T00:56:34.807Z,7.80
2023-02-24T00:59:04.749Z,7.80
2023-02-24T01:02:16.428Z,7.80
2023-02-24T01:04:46.770Z,7.90
2023-02-24T01:07:15.925Z,7.90
2023-02-24T01:09:44.515Z,7.90
2023-02-24T01:12:33.631Z,7.90
2023-02-24T01:15:05.031Z,7.90
2023-02-24T01:17:36.331Z,7.90
2023-02-24T01:20:15.804Z,7.90
2023-02-24T01:22:45.062Z,7.80
2023-02-24T01:25:13.554Z,7.70
2023-02-24T01:27:42.982Z,7.70
2023-02-24T01:30:16.116Z,7.60
2023-02-24T01:32:44.821Z,7.30
2023-02-24T01:35:14.742Z,7.00
2023-02-24T01:37:43.406Z,6.80
2023-02-24T01:40:18.754Z,6.80
2023-02-24T01:42:49.407Z,6.60
2023-02-24T01:45:25.229Z,6.50
2023-02-24T01:47:53.947Z,6.30
2023-02-24T01:50:26.265Z,6.20
2023-02-24T01:52:56.505Z,6.20
2023-02-24T01:55:29.273Z,6.30
2023-02-24T01:57:59.508Z,6.40
2023-02-24T02:00:38.870Z,6.40
2023-02-24T02:03:10.480Z,6.40
2023-02-24T02:05:43.469Z,6.30
2023-02-24T02:08:13.018Z,6.30
2023-02-24T02:10:44.695Z,6.30
2023-02-24T02:13:14.992Z,6.30
2023-02-24T02:16:11.453Z,6.20
2023-02-24T02:18:43.893Z,6.20
2023-02-24T02:21:38.153Z,6.10
2023-02-24T02:24:36.489Z,6.10
2023-02-24T02:27:14.257Z,6.10
2023-02-24T02:30:06.572Z,6.00
2023-02-24T02:33:00.501Z,6.00
2023-02-24T02:35:36.722Z,5.90
2023-02-24T02:38:09.426Z,5.90
2023-02-24T02:40:41.327Z,5.90
2023-02-24T02:43:16.028Z,5.90
2023-02-24T02:45:47.596Z,6.00
2023-02-24T02:48:18.200Z,6.20
2023-02-24T02:50:49.764Z,6.30
2023-02-24T02:53:20.997Z,6.40
2023-02-24T02:55:51.939Z,6.40
2023-02-24T02:58:23.712Z,6.40
2023-02-24T03:01:01.610Z,6.40
2023-02-24T03:03:32.599Z,6.30
2023-02-24T03:06:04.992Z,6.20
2023-02-24T03:08:37.345Z,6.10
2023-02-24T03:11:08.120Z,6.10
2023-02-24T03:13:39.091Z,6.00
2023-02-24T03:16:09.947Z,5.90
2023-02-24T03:18:40.265Z,5.90
2023-02-24T03:21:12.789Z,6.00
2023-02-24T03:23:45.401Z,6.10
2023-02-24T03:26:18.698Z,6.10
2023-02-24T03:28:52.484Z,6.00
2023-02-24T03:31:24.366Z,6.00
2023-02-24T03:34:00.738Z,5.90
2023-02-24T03:36:31.095Z,5.90
2023-02-24T03:39:02.287Z,5.80
2023-02-24T03:41:38.593Z,5.80
2023-02-24T03:44:09.868Z,5.90
2023-02-24T03:46:39.291Z,5.90
2023-02-24T03:49:10.489Z,5.80
2023-02-24T03:51:44.737Z,5.70
2023-02-24T03:54:20.061Z,5.80
2023-02-24T03:56:57.885Z,5.80
2023-02-24T03:59:34.151Z,5.80
2023-02-24T04:02:06.188Z,5.80
2023-02-24T04:04:46.038Z,5.70
2023-02-24T04:07:26.416Z,5.70
2023-02-24T04:10:00.268Z,5.60
2023-02-24T04:12:30.965Z,5.50
2023-02-24T04:15:09.227Z,5.40
2023-02-24T04:17:41.462Z,5.30
2023-02-24T04:20:13.661Z,5.30
2023-02-24T04:22:49.939Z,5.40
2023-02-24T04:25:20.667Z,5.60
2023-02-24T04:27:48.915Z,5.60
2023-02-24T04:30:20.032Z,5.60
2023-02-24T04:32:48.196Z,5.60
2023-02-24T04:35:20.621Z,5.50
2023-02-24T04:37:53.144Z,5.40
2023-02-24T04:40:23.544Z,5.40
2023-02-24T04:42:52.904Z,5.40
2023-02-24T04:45:43.424Z,5.50
2023-02-24T04:48:13.507Z,5.60
2023-02-24T04:50:43.216Z,5.60
2023-02-24T04:53:13.733Z,5.60
2023-02-24T04:55:43.349Z,5.60
2023-02-24T04:58:12.179Z,5.60
2023-02-24T05:00:41.908Z,5.50
2023-02-24T05:03:12.014Z,5.50
2023-02-24T05:05:43.191Z,5.40
2023-02-24T05:08:11.812Z,5.40
2023-02-24T05:10:42.682Z,5.50
2023-02-24T05:13:14.396Z,5.50
2023-02-24T05:15:44.614Z,5.40
2023-02-24T05:18:15.097Z,5.30
2023-02-24T05:21:02.028Z,5.20
2023-02-24T05:23:32.047Z,5.30
2023-02-24T05:26:02.154Z,5.40
2023-02-24T05:28:31.974Z,5.60
2023-02-24T05:31:05.953Z,5.70
2023-02-24T05:33:35.116Z,5.90
2023-02-24T05:36:05.698Z,6.10
2023-02-24T05:38:38.549Z,6.20
2023-02-24T05:41:14.959Z,6.30
2023-02-24T05:43:48.133Z,6.30
2023-02-24T05:46:16.611Z,6.40
2023-02-24T05:48:44.983Z,6.40
2023-02-24T05:51:13.599Z,6.10
2023-02-24T05:53:42.605Z,5.70
2023-02-24T05:56:12.078Z,5.50
2023-02-24T05:58:41.325Z,5.50
2023-02-24T06:01:16.239Z,5.70
2023-02-24T06:03:47.951Z,5.70
2023-02-24T06:06:16.685Z,5.80
2023-02-24T06:08:50.264Z,5.90
2023-02-24T06:11:21.194Z,5.90
2023-02-24T06:13:50.138Z,5.90
2023-02-24T06:16:19.358Z,6.00
2023-02-24T06:18:50.536Z,6.10
2023-02-24T06:21:18.965Z,6.10
2023-02-24T06:23:47.665Z,6.20
2023-02-24T06:26:19.339Z,6.30
2023-02-24T06:29:08.256Z,6.30
2023-02-24T06:31:36.385Z,6.20
2023-02-24T06:34:04.805Z,6.20
2023-02-24T06:36:32.867Z,6.20
2023-02-24T06:39:02.083Z,6.10
2023-02-24T06:41:30.422Z,6.00
2023-02-24T06:43:59.093Z,6.00
2023-02-24T06:46:28.778Z,5.90
2023-02-24T06:48:58.032Z,6.00
2023-02-24T06:51:30.170Z,6.00
2023-02-24T06:53:59.385Z,6.00
2023-02-24T06:56:29.583Z,6.00
2023-02-24T06:58:59.451Z,6.00
2023-02-24T07:01:29.916Z,6.00
2023-02-24T07:04:18.877Z,6.00
2023-02-24T07:06:49.675Z,5.90
2023-02-24T07:09:18.736Z,5.90
2023-02-24T07:11:48.716Z,5.80
2023-02-24T07:14:16.938Z,5.80
2023-02-24T07:16:46.898Z,5.90
2023-02-24T07:19:16.426Z,5.80
2023-02-24T07:21:50.159Z,5.90
2023-02-24T07:24:24.725Z,6.00
2023-02-24T07:26:59.071Z,6.10
2023-02-24T07:29:27.657Z,6.10
2023-02-24T07:32:01.672Z,6.10
2023-02-24T07:34:30.493Z,6.10
2023-02-24T07:37:02.606Z,6.20
2023-02-24T07:39:31.059Z,6.20
2023-02-24T07:41:59.416Z,6.20
2023-02-24T07:44:29.811Z,6.30
2023-02-24T07:47:00.281Z,6.30
2023-02-24T07:49:30.485Z,6.30
2023-02-24T07:51:58.657Z,6.30
2023-02-24T07:54:30.447Z,6.40
2023-02-24T07:57:00.066Z,6.50
2023-02-24T07:59:29.583Z,6.40
2023-02-24T08:01:59.438Z,6.50
2023-02-24T08:04:28.985Z,6.40
2023-02-24T08:06:59.191Z,6.40
2023-02-24T08:09:46.391Z,6.40
2023-02-24T08:12:18.199Z,6.30
2023-02-24T08:14:50.840Z,6.40
2023-02-24T08:17:22.408Z,6.40
2023-02-24T08:20:00.963Z,6.50
2023-02-24T08:22:37.767Z,6.50
2023-02-24T08:25:06.689Z,6.60
2023-02-24T08:27:39.129Z,6.50
2023-02-24T08:30:08.098Z,6.60
2023-02-24T08:32:39.158Z,6.80
2023-02-24T08:35:14.521Z,6.80
2023-02-24T08:37:47.104Z,6.90
2023-02-24T08:40:37.987Z,6.90
2023-02-24T08:43:17.694Z,7.00
2023-02-24T08:45:47.128Z,7.00
2023-02-24T08:48:32.337Z,6.90
2023-02-24T08:51:02.102Z,6.90
2023-02-24T08:53:31.718Z,7.00
2023-02-24T08:56:00.667Z,7.00
2023-02-24T08:58:29.107Z,7.10
2023-02-24T09:00:59.680Z,7.20
2023-02-24T09:03:30.025Z,7.20
2023-02-24T09:06:03.542Z,7.20
2023-02-24T09:08:38.360Z,7.30
2023-02-24T09:11:08.884Z,7.30
2023-02-24T09:13:38.313Z,7.30
2023-02-24T09:16:16.639Z,7.40
2023-02-24T09:19:06.757Z,7.50
2023-02-24T09:22:10.359Z,7.70
2023-02-24T09:24:42.122Z,7.70
2023-02-24T09:27:17.419Z,7.80
2023-02-24T09:29:50.133Z,8.00
2023-02-24T09:32:18.777Z,8.20
2023-02-24T09:34:48.450Z,8.40
2023-02-24T09:37:26.121Z,8.60
2023-02-24T09:40:34.351Z,8.60
2023-02-24T09:43:11.069Z,8.70
2023-02-24T09:45:40.968Z,8.80
2023-02-24T09:48:16.819Z,9.00
2023-02-24T09:51:03.634Z,9.00
2023-02-24T09:53:41.467Z,9.20
2023-02-24T09:56:16.189Z,9.30
2023-02-24T09:58:49.022Z,9.30
2023-02-24T10:01:30.788Z,9.40
2023-02-24T10:04:14.981Z,9.50
2023-02-24T10:06:50.686Z,9.70
2023-02-24T10:09:24.885Z,10.00
2023-02-24T10:11:54.919Z,10.20
2023-02-24T10:14:37.785Z,10.60
2023-02-24T10:17:23.757Z,10.90
2023-02-24T10:20:00.349Z,11.30
2023-02-24T10:22:35.127Z,11.60
2023-02-24T10:25:12.038Z,11.90
2023-02-24T10:27:45.132Z,12.30
2023-02-24T10:30:20.164Z,12.60
2023-02-24T10:32:52.001Z,12.70
2023-02-24T10:35:26.279Z,12.70
2023-02-24T10:38:05.103Z,12.50
2023-02-24T10:40:46.114Z,12.40
2023-02-24T10:43:18.402Z,12.20
2023-02-24T10:45:48.339Z,12.00
2023-02-24T10:48:40.424Z,11.80
2023-02-24T10:51:12.757Z,11.70
2023-02-24T10:53:46.116Z,11.60
2023-02-24T10:56:27.087Z,11.60
2023-02-24T10:59:16.451Z,11.50
2023-02-24T11:01:55.180Z,11.50
2023-02-24T11:04:43.768Z,11.40
2023-02-24T11:07:24.339Z,11.40
2023-02-24T11:10:12.147Z,11.40
2023-02-24T11:13:09.155Z,11.50
2023-02-24T11:15:56.099Z,11.50
2023-02-24T11:18:26.843Z,11.50
2023-02-24T11:20:56.439Z,11.50
2023-02-24T11:23:27.582Z,11.50
2023-02-24T11:26:00.727Z,11.60
2023-02-24T11:28:40.900Z,12.10
2023-02-24T11:31:15.463Z,11.70
2023-02-24T11:33:48.097Z,11.70
2023-02-24T11:36:22.625Z,11.70
2023-02-24T11:39:15.227Z,11.60
2023-02-24T11:41:50.903Z,11.70
2023-02-24T11:44:22.608Z,11.60
2023-02-24T11:46:53.284Z,11.50
2023-02-24T11:49:29.013Z,11.60
2023-02-24T11:51:57.299Z,11.50
2023-02-24T11:54:26.131Z,11.40
2023-02-24T11:56:58.105Z,11.40
2023-02-24T11:59:31.500Z,11.40
2023-02-24T12:02:05.619Z,11.50
2023-02-24T12:04:36.072Z,11.40
2023-02-24T12:07:13.054Z,11.40
2023-02-24T12:09:45.183Z,11.40
2023-02-24T12:12:19.013Z,11.30
2023-02-24T12:14:48.872Z,11.30
2023-02-24T12:17:19.191Z,11.30
2023-02-24T12:19:59.630Z,11.30
2023-02-24T12:22:30.289Z,11.20
2023-02-24T12:24:59.599Z,11.20
2023-02-24T12:27:33.831Z,11.20
2023-02-24T12:30:07.333Z,11.10
2023-02-24T12:32:42.895Z,11.10
2023-02-24T12:35:20.186Z,11.10
2023-02-24T12:37:52.054Z,11.00
2023-02-24T12:40:26.342Z,11.00
2023-02-24T12:42:59.600Z,11.00
2023-02-24T12:45:32.553Z,10.90
2023-02-24T12:48:07.022Z,10.90
2023-02-24T12:50:39.659Z,10.90
2023-02-24T12:53:12.044Z,10.90
2023-02-24T12:55:45.331Z,10.90
2023-02-24T12:58:17.480Z,10.80
2023-02-24T13:00:52.437Z,10.80
2023-02-24T13:03:29.320Z,10.80
2023-02-24T13:06:02.891Z,10.80
2023-02-24T13:08:37.845Z,10.80
2023-02-24T13:11:13.481Z,10.70
2023-02-24T13:13:48.800Z,10.70
2023-02-24T13:16:28.311Z,10.70
2023-02-24T13:19:05.333Z,10.60
2023-02-24T13:21:34.730Z,10.60
2023-02-24T13:24:03.483Z,10.60
2023-02-24T13:26:33.407Z,10.50
2023-02-24T13:29:04.843Z,10.50
2023-02-24T13:31:44.046Z,10.50
2023-02-24T13:34:16.490Z,10.40
2023-02-24T13:36:49.241Z,10.40
2023-02-24T13:39:23.234Z,10.30
2023-02-24T13:42:02.731Z,10.20
2023-02-24T13:44:32.814Z,10.20
2023-02-24T13:47:16.936Z,10.20
2023-02-24T13:49:49.599Z,10.20
2023-02-24T13:52:22.356Z,10.20
2023-02-24T13:55:04.881Z,10.20
2023-02-24T13:57:45.930Z,10.30
2023-02-24T14:00:22.002Z,10.30
2023-02-24T14:02:53.083Z,10.30
2023-02-24T14:05:22.969Z,10.20
2023-02-24T14:07:53.390Z,10.20
2023-02-24T14:10:23.182Z,10.20
2023-02-24T14:12:52.043Z,10.20
2023-02-24T14:15:23.372Z,10.20
2023-02-24T14:17:55.930Z,10.20
2023-02-24T14:20:25.272Z,10.20
2023-02-24T14:22:54.374Z,10.10
2023-02-24T14:25:23.790Z,10.20
2023-02-24T14:27:53.467Z,10.20
2023-02-24T14:30:25.442Z,10.20
2023-02-24T14:32:53.947Z,10.20
2023-02-24T14:35:25.306Z,10.20
2023-02-24T14:37:53.705Z,10.20
2023-02-24T14:40:25.712Z,10.20
2023-02-24T14:42:55.495Z,10.20
2023-02-24T14:45:26.605Z,10.10
2023-02-24T14:47:55.755Z,10.10
2023-02-24T14:50:26.626Z,10.10
2023-02-24T14:52:56.709Z,10.10
2023-02-24T14:55:27.504Z,9.20
2023-02-24T14:57:57.753Z,10.00
2023-02-24T15:00:29.253Z,10.00
2023-02-24T15:03:02.077Z,10.00
2023-02-24T15:05:30.752Z,10.00
2023-02-24T15:07:59.436Z,10.00
2023-02-24T15:10:30.742Z,9.90
2023-02-24T15:13:01.442Z,9.90
2023-02-24T15:15:34.667Z,9.90
2023-02-24T15:18:09.508Z,9.90
2023-02-24T15:20:39.854Z,9.90
2023-02-24T15:23:21.770Z,9.90
2023-02-24T15:25:51.314Z,9.90
2023-02-24T15:28:24.247Z,9.90
2023-02-24T15:31:05.057Z,9.90
2023-02-24T15:33:37.601Z,9.80
2023-02-24T15:36:08.622Z,9.80
2023-02-24T15:38:38.050Z,9.80
2023-02-24T15:41:07.456Z,9.80
2023-02-24T15:43:37.263Z,9.80
2023-02-24T15:46:17.266Z,9.70
2023-02-24T15:48:45.866Z,9.70
2023-02-24T15:51:21.453Z,9.70
2023-02-24T15:53:49.785Z,9.70
2023-02-24T15:56:18.228Z,9.60
2023-02-24T15:58:46.672Z,9.60
2023-02-24T16:01:16.145Z,9.60
2023-02-24T16:03:45.067Z,9.60
2023-02-24T16:06:15.880Z,10.40
2023-02-24T16:08:46.540Z,9.60
2023-02-24T16:11:15.052Z,9.50
2023-02-24T16:13:44.816Z,9.40
2023-02-24T16:16:13.719Z,9.20
2023-02-24T16:18:43.763Z,9.20
2023-02-24T16:21:11.996Z,9.20
2023-02-24T16:23:40.985Z,9.20
2023-02-24T16:26:13.828Z,9.20
2023-02-24T16:28:42.805Z,9.10
2023-02-24T16:31:11.080Z,9.10
2023-02-24T16:33:53.932Z,9.10
2023-02-24T16:36:23.693Z,9.10
2023-02-24T16:38:52.245Z,9.10
2023-02-24T16:41:20.364Z,9.10
2023-02-24T16:43:48.687Z,9.10
2023-02-24T16:46:17.873Z,9.10
2023-02-24T16:48:48.803Z,9.00
2023-02-24T16:51:17.433Z,9.00
2023-02-24T16:53:45.507Z,9.00
2023-02-24T16:56:15.155Z,8.90
2023-02-24T16:58:43.661Z,8.90
2023-02-24T17:01:14.416Z,9.00
2023-02-24T17:03:44.781Z,9.00
2023-02-24T17:06:14.208Z,9.00
2023-02-24T17:08:44.053Z,9.00
2023-02-24T17:11:13.266Z,9.00
2023-02-24T17:13:41.716Z,9.10
2023-02-24T17:16:10.473Z,9.00
2023-02-24T17:18:38.526Z,9.10
2023-02-24T17:21:07.282Z,9.10
2023-02-24T17:23:36.708Z,9.10
2023-02-24T17:26:05.277Z,9.10
2023-02-24T17:28:33.449Z,9.10
2023-02-24T17:31:02.070Z,9.00
2023-02-24T17:33:30.215Z,8.90
2023-02-24T17:35:59.215Z,8.80
2023-02-24T17:38:27.322Z,8.70
2023-02-24T17:40:58.789Z,8.60
2023-02-24T17:43:27.119Z,8.60
2023-02-24T17:45:56.452Z,8.50
2023-02-24T17:48:24.760Z,8.50
2023-02-24T17:50:53.440Z,8.50
2023-02-24T17:53:21.627Z,8.50
2023-02-24T17:56:02.009Z,8.50
2023-02-24T17:58:32.963Z,8.50
2023-02-24T18:01:01.928Z,8.60
2023-02-24T18:03:39.221Z,8.50
2023-02-24T18:06:09.436Z,8.60
2023-02-24T18:08:39.759Z,8.60
2023-02-24T18:11:09.838Z,8.60
2023-02-24T18:13:40.171Z,8.60
2023-02-24T18:16:09.890Z,8.50
2023-02-24T18:18:38.779Z,8.50
2023-02-24T18:21:08.484Z,8.50
2023-02-24T18:23:38.227Z,8.50
2023-02-24T18:26:07.415Z,8.50
2023-02-24T18:28:35.975Z,8.50
2023-02-24T18:31:12.267Z,8.40
2023-02-24T18:33:41.269Z,8.50
2023-02-24T18:36:10.357Z,8.50
2023-02-24T18:38:38.575Z,8.60
2023-02-24T18:41:08.042Z,8.60
2023-02-24T18:43:36.932Z,8.60
2023-02-24T18:46:06.442Z,8.50
2023-02-24T18:48:36.395Z,8.50
2023-02-24T18:51:05.035Z,8.50
2023-02-24T18:53:36.798Z,8.50
2023-02-24T18:56:06.882Z,8.50
2023-02-24T18:58:35.110Z,8.50
2023-02-24T19:01:10.923Z,8.60
2023-02-24T19:03:40.722Z,8.70
2023-02-24T19:06:09.013Z,8.70
2023-02-24T19:08:37.084Z,8.70
2023-02-24T19:11:10.048Z,8.70
2023-02-24T19:13:38.179Z,8.80
2023-02-24T19:16:07.050Z,8.80
2023-02-24T19:18:35.576Z,8.80
2023-02-24T19:21:07.616Z,8.80
2023-02-24T19:23:36.201Z,8.80
2023-02-24T19:26:04.645Z,8.80
2023-02-24T19:28:32.749Z,8.80
2023-02-24T19:31:01.534Z,8.80
2023-02-24T19:33:29.618Z,8.80
2023-02-24T19:35:59.503Z,8.80
2023-02-24T19:38:28.954Z,8.80
2023-02-24T19:40:58.712Z,8.80
2023-02-24T19:43:32.638Z,8.90
2023-02-24T19:46:04.355Z,8.90
2023-02-24T19:48:32.864Z,8.80
2023-02-24T19:51:01.405Z,8.80
2023-02-24T19:53:31.533Z,8.60
2023-02-24T19:55:59.682Z,8.90
2023-02-24T19:58:27.776Z,8.90
2023-02-24T20:00:55.931Z,8.90
2023-02-24T20:03:28.904Z,8.80
2023-02-24T20:05:56.906Z,8.90
2023-02-24T20:08:25.410Z,8.90
2023-02-24T20:11:00.617Z,8.90
2023-02-24T20:13:29.209Z,9.00
2023-02-24T20:16:04.836Z,9.00
2023-02-24T20:18:33.391Z,9.00
2023-02-24T20:21:01.707Z,9.00
2023-02-24T20:23:32.272Z,9.00
2023-02-24T20:26:02.662Z,9.00
2023-02-24T20:28:32.742Z,9.10
2023-02-24T20:31:06.617Z,9.00
2023-02-24T20:33:35.275Z,9.10
2023-02-24T20:36:07.295Z,9.00
2023-02-24T20:38:35.902Z,9.00
2023-02-24T20:41:06.144Z,8.90
2023-02-24T20:43:35.453Z,8.90
2023-02-24T20:46:11.088Z,8.90
2023-02-24T20:48:40.238Z,8.90
2023-02-24T20:51:08.637Z,8.80
2023-02-24T20:53:51.099Z,8.80
2023-02-24T20:56:26.831Z,8.70
2023-02-24T20:59:00.187Z,8.70
2023-02-24T21:01:28.710Z,8.60
2023-02-24T21:03:57.756Z,8.60
2023-02-24T21:06:26.036Z,8.50
2023-02-24T21:08:54.490Z,8.40
2023-02-24T21:11:23.027Z,8.30
2023-02-24T21:13:52.667Z,8.10
2023-02-24T21:16:22.224Z,8.10
2023-02-24T21:18:51.525Z,7.90
2023-02-24T21:21:20.850Z,7.90
2023-02-24T21:23:50.933Z,7.80
2023-02-24T21:26:21.542Z,7.70
2023-02-24T21:28:56.883Z,7.70
2023-02-24T21:31:27.766Z,7.70
2023-02-24T21:33:56.580Z,7.70
2023-02-24T21:36:28.123Z,7.60
2023-02-24T21:38:56.466Z,7.70
2023-02-24T21:41:24.972Z,7.50
2023-02-24T21:43:54.700Z,7.50
2023-02-24T21:46:24.684Z,7.50
2023-02-24T21:48:56.172Z,7.50
2023-02-24T21:51:26.109Z,7.50
2023-02-24T21:53:55.285Z,7.40
2023-02-24T21:56:24.914Z,7.40
2023-02-24T21:58:54.575Z,7.40
2023-02-24T22:01:23.858Z,7.30
2023-02-24T22:03:54.318Z,7.20
2023-02-24T22:06:24.368Z,7.20
2023-02-24T22:08:53.124Z,7.10
2023-02-24T22:11:22.108Z,7.00
2023-02-24T22:13:50.908Z,7.00
2023-02-24T22:16:20.662Z,6.90
2023-02-24T22:18:49.329Z,6.80
2023-02-24T22:21:18.449Z,6.70
2023-02-24T22:23:49.524Z,6.70
2023-02-24T22:26:17.703Z,6.80
2023-02-24T22:28:46.907Z,6.80
2023-02-24T22:31:16.169Z,6.70
2023-02-24T22:33:45.352Z,6.50
2023-02-24T22:36:14.916Z,6.40
2023-02-24T22:38:43.950Z,6.40
2023-02-24T22:41:14.317Z,6.40
2023-02-24T22:43:42.831Z,6.40
2023-02-24T22:46:12.708Z,6.40
2023-02-24T22:48:41.155Z,6.40
2023-02-24T22:51:10.416Z,6.40
2023-02-24T22:53:41.500Z,6.40
2023-02-24T22:56:11.217Z,6.40
2023-02-24T22:58:41.120Z,6.40
2023-02-24T23:01:10.083Z,6.40
2023-02-24T23:03:38.705Z,6.30
2023-02-24T23:06:07.675Z,6.20
2023-02-24T23:08:37.507Z,6.20
2023-02-24T23:11:07.016Z,6.10
2023-02-24T23:13:35.496Z,6.10
2023-02-24T23:16:06.596Z,6.00
2023-02-24T23:18:35.392Z,6.00
2023-02-24T23:21:06.116Z,6.00
2023-02-24T23:23:34.197Z,6.00
2023-02-24T23:26:02.525Z,6.00
2023-02-24T23:28:31.534Z,6.10
2023-02-24T23:31:00.270Z,6.00
2023-02-24T23:33:29.785Z,6.00
2023-02-24T23:36:02.971Z,6.00
2023-02-24T23:38:31.059Z,6.00
2023-02-24T23:40:59.073Z,6.00
2023-02-24T23:43:27.291Z,6.00
2023-02-24T23:45:55.647Z,5.90
2023-02-24T23:48:25.363Z,5.90
2023-02-24T23:50:57.249Z,5.90
2023-02-24T23:53:25.948Z,5.90
2023-02-24T23:55:53.982Z,5.80
2023-02-24T23:58:22.551Z,5.70
